Hauptseite
METAR-TAF:

METAR-TAF

Flughäfen :

Flughafen Balaton

Hévíz, Ungarn

Breite: 46-41-11N, Länge: 017-09-33E, Höhe: 124 m

Beobachtung

Neuester Wetterbericht von vor 7 Stunden und 57 Minuten, um 15:45 UTC
Wind 10 kt aus Nord, Böen bis zu 22 kt
Temperatur 13°C
Luftfeuchtigkeit 44%
Luftdruck 1036 hPa
Sichtweite 10 km oder mehr
keine Wolken unter 1500 m und keine Kumulonimbus oder Gewitterwolken

METAR: LHSM 251545Z 01010G22KT CAVOK 13/01 Q1036 NOSIG

Zeit: 01:42 (23:42 UTC)

Prognose

Neuester Wetterbericht von vor 12 Stunden und 27 Minuten, um 11:15 UTC
Gültige Prognose vom 25 um 12 UTC bis 25 um 21 UTC
Wind 15 kt aus Nord
Sichtweite 10 km oder mehr
Leicht bewölkt in der Höhe von 4000 ft

TAF: LHSM 251115Z 2512/2521 35015KT 9999 FEW040

Wetterbeobachtungen und Prognosen von mehr als 4000 Flughäfen (METAR und TAF Bericht).

Die verfügbaren Stationen werden durch gelbe und rote Markierungen auf der Karte dargestellt.

Führen Sie die Maus auf sie, um den Namen der Station zu sehen.

Darauf klicken, um die Beobachtung von Wetterbeobachtungen und Prognosen zu sehen.

Um die Karte zu ändern : klicken Sie auf den grünen Tasten mit einem schwarzen Kreuz Zum Vergrößern, auf den grünen Button mit einem Gedankenstrich zu verkleinern, oder auf die grünen Pfeile für benachbarte Karten.


METAR-TAF: